Karlstad, MN (56732)

4:47 PM CDT on August 21, 2014 (GMT -0500)
Hallock Municipal | Change Station
CLOSE
Current Station
Airport
Location: Hallock,
Elevation: 820 ft
Nearby Weather Stations

Elev 820 ft 48.75 °N, 96.94 °W | Updated 14 minutes ago

Clear
Clear
73 °F
Feels Like 73 °F
N
6
Wind Variable Wind from ENE

Today
High -- | Low -- °F
--% Chance of Precip.
Yesterday
High -- | Low -- °F
Precip. -- in
6:27 AM 8:29 PM
Waning Crescent, 12% visible
Pressure 29.82 in
Visibility 10.0 miles
Clouds Clear
Dew Point 66 °F
Humidity 78%
Rainfall 0.00 in
Snow Depth Not available.
UV 5 out of 12
Pollen 6.30 out of 12
Air Quality Not available.
Flu Activity Not available.
METAR KHCO 212133Z AUTO 07005KT 10SM CLR 23/19 A2982 RMK AO2 LTG DSNT W

More Conditions Fewer Conditions

Pressure 29.82 in
Visibility 10.0 miles
Clouds Clear
Dew Point 66 °F
Humidity 78%
Rainfall 0.00 in
Snow Depth Not available.
UV 5 out of 12
Pollen 6.30 out of 12
Air Quality Not available.
Flu Activity Not available.
METAR KHCO 212133Z AUTO 07005KT 10SM CLR 23/19 A2982 RMK AO2 LTG DSNT W

More Conditions Fewer Conditions

10-Day Weather Forecast

Almanac

Astronomy

Aug. 21, 2014 Rise Set
Actual Time 6:27 AM CDT 8:29 PM CDT
Civil Twilight 5:54 AM CDT 9:03 PM CDT
Nautical Twilight 5:12 AM CDT 9:44 PM CDT
Astronomical Twilight 4:25 AM CDT 10:31 PM CDT
Moon 2:51 AM CDT 6:05 PM CDT
Length of Visible Light 15h 09m
Length of Day
14h 01m
Tomorrow will be 3m 19s shorter.
Waning Crescent, 12% of the Moon is Illuminated
Today
Waning Crescent
Aug 25
New
Sep 2
First Quarter
Sep 8
Full
Sep 15
Last Quarter

Today's Extremes

State Highs State Lows

Community

WunderPhotos

Upload Photos

1,746,021 photos uploaded!

WunderBlogs® & News

Nearby

Snow Depth

Station Depth Elevation
No new snow has been reported.

Earthquake Activity

City Distance Mag. Time & Date
No recent earthquake activity has been reported nearby.
Minimum magnitude displayed is 2.5.

Coastal Water Temperatures

Place Temperature
No Stations Reporting

Nearby Weather Stations